Time;durP1;ratioP1;P1;durP2;ratioP2;P2;SDS_P1;SDS_P2;PMS_P1;PMS_P2;Temp;Humidity;BMP_temperature;BMP_pressure;BME280_temperature;BME280_humidity;BME280_pressure;Samples;Min_cycle;Max_cycle;Signal;HPM_P1;HPM_P2
2023/09/13 00:02:00;;;;;;;28.02;19.08;;;;;;;17.89;100.00;101153.13;5111693;28;20123;-52
2023/09/13 00:04:25;;;;;;;30.20;20.23;;;;;;;18.15;100.00;101183.59;5112602;28;20142;-53
2023/09/13 00:06:50;;;;;;;27.10;20.05;;;;;;;18.21;100.00;101190.38;5112753;28;20115;-47
2023/09/13 00:09:16;;;;;;;30.33;21.67;;;;;;;18.26;100.00;101190.97;5113192;28;20375;-52
2023/09/13 00:11:41;;;;;;;28.92;21.08;;;;;;;18.28;100.00;101195.25;5112767;28;20039;-46
2023/09/13 00:14:06;;;;;;;26.60;20.52;;;;;;;17.95;100.00;101130.59;5112705;28;20164;-53
2023/09/13 00:16:32;;;;;;;28.08;20.52;;;;;;;18.25;100.00;101182.09;5112366;28;20096;-49
2023/09/13 00:18:59;;;;;;;33.10;21.75;;;;;;;18.27;100.00;101177.53;5111442;28;20112;-49
2023/09/13 00:21:24;;;;;;;27.48;20.95;;;;;;;17.87;100.00;101116.88;5112791;28;20032;-49
2023/09/13 00:23:50;;;;;;;28.48;21.60;;;;;;;18.22;100.00;101174.28;5112389;28;20390;-52
2023/09/13 00:26:15;;;;;;;27.08;21.40;;;;;;;17.90;100.00;101119.38;5112685;28;20042;-47
2023/09/13 00:28:40;;;;;;;30.02;21.40;;;;;;;18.26;100.00;101180.31;5112883;28;20046;-49
2023/09/13 00:31:09;;;;;;;26.55;21.63;;;;;;;18.10;100.00;101151.03;5110969;28;20060;-49
2023/09/13 00:33:35;;;;;;;30.75;22.27;;;;;;;18.27;100.00;101174.88;5112557;28;20031;-52
2023/09/13 00:36:00;;;;;;;33.72;22.35;;;;;;;18.26;100.00;101178.50;5110051;28;20118;-50
2023/09/13 00:38:25;;;;;;;32.10;21.63;;;;;;;18.24;100.00;101164.38;5112019;28;20112;-49
2023/09/13 00:40:51;;;;;;;27.73;21.35;;;;;;;18.21;100.00;101169.06;5112366;28;20028;-49
2023/09/13 00:43:17;;;;;;;37.15;23.70;;;;;;;17.78;100.00;101109.41;5112213;28;20118;-47
2023/09/13 00:45:42;;;;;;;29.65;21.65;;;;;;;18.17;100.00;101173.72;5112143;28;20123;-48
2023/09/13 00:48:08;;;;;;;33.13;23.30;;;;;;;18.09;100.00;101162.66;5112478;28;20043;-49
2023/09/13 00:50:35;;;;;;;30.50;21.67;;;;;;;17.79;100.00;101122.66;5110760;28;20076;-49
2023/09/13 00:53:02;;;;;;;30.35;22.10;;;;;;;17.86;100.00;101149.81;5095808;28;20047;-46
2023/09/13 00:55:27;;;;;;;28.83;21.90;;;;;;;18.01;100.00;101178.19;5090623;28;20055;-48
2023/09/13 00:57:53;;;;;;;35.70;23.52;;;;;;;18.03;100.00;101176.31;5091592;28;20446;-50
2023/09/13 01:00:19;;;;;;;31.15;22.38;;;;;;;17.72;100.00;101117.75;5091749;28;20379;-46
2023/09/13 01:02:45;;;;;;;29.27;21.13;;;;;;;18.12;100.00;101180.25;5090396;28;20383;-52
2023/09/13 01:05:13;;;;;;;30.83;23.48;;;;;;;18.14;100.00;101173.88;5089934;28;20063;-47
2023/09/13 01:07:42;;;;;;;31.05;22.55;;;;;;;18.17;100.00;101164.84;5091485;28;20487;-47
2023/09/13 01:10:08;;;;;;;31.90;22.88;;;;;;;17.82;100.00;101103.84;5096479;28;20051;-48
2023/09/13 01:12:34;;;;;;;29.70;21.52;;;;;;;18.16;100.00;101165.78;5110415;28;20106;-49
2023/09/13 01:15:00;;;;;;;27.70;20.23;;;;;;;18.20;100.00;101167.34;5093855;28;20118;-51
2023/09/13 01:17:39;;;;;;;32.55;21.83;;;;;;;17.84;100.00;101106.41;5101714;28;20381;-48
2023/09/13 01:20:18;;;;;;;26.85;20.70;;;;;;;18.14;100.00;101162.38;5091640;28;20059;-54
2023/09/13 01:22:54;;;;;;;28.42;20.80;;;;;;;17.75;100.00;101094.47;5091446;28;20059;-48
2023/09/13 01:25:53;;;;;;;29.55;21.38;;;;;;;18.17;100.00;101165.72;5091741;28;20039;-45
2023/09/13 01:28:36;;;;;;;29.23;20.85;;;;;;;18.12;100.00;101162.47;5090178;28;20094;-46
2023/09/13 01:31:05;;;;;;;28.70;21.02;;;;;;;17.74;100.00;101097.25;5091231;28;20455;-48
2023/09/13 01:33:30;;;;;;;30.55;21.08;;;;;;;18.04;100.00;101159.38;5090331;28;20082;-50
2023/09/13 01:35:55;;;;;;;35.58;22.40;;;;;;;17.62;100.00;101093.50;5111782;28;20039;-48
2023/09/13 01:38:21;;;;;;;35.00;22.27;;;;;;;17.30;100.00;101054.50;5111809;28;20027;-49
2023/09/13 01:40:48;;;;;;;35.67;22.65;;;;;;;17.83;100.00;101152.63;5111772;28;20320;-49
2023/09/13 01:43:13;;;;;;;36.85;22.92;;;;;;;17.44;100.00;101106.00;5110617;28;20024;-51
2023/09/13 01:45:39;;;;;;;34.60;21.88;;;;;;;17.74;100.00;101163.81;5110122;28;20030;-48
2023/09/13 01:48:05;;;;;;;34.33;21.70;;;;;;;17.71;100.00;101164.84;5111280;28;20478;-49
2023/09/13 01:50:33;;;;;;;31.52;21.00;;;;;;;17.31;100.00;101107.63;5112212;28;20055;-47
2023/09/13 01:53:03;;;;;;;31.20;21.25;;;;;;;17.62;100.00;101170.69;5097353;28;20023;-53
2023/09/13 01:55:28;;;;;;;39.42;23.38;;;;;;;17.26;100.00;101108.81;5115461;28;20110;-50
2023/09/13 01:57:54;;;;;;;38.13;22.85;;;;;;;17.57;100.00;101167.41;5115279;28;20042;-52
2023/09/13 02:00:19;;;;;;;37.63;22.73;;;;;;;17.50;100.00;101165.16;5115511;28;20046;-47
2023/09/13 02:02:44;;;;;;;35.78;22.17;;;;;;;17.52;100.00;101164.13;5114954;28;20066;-49
2023/09/13 02:05:10;;;;;;;44.72;22.75;;;;;;;17.47;100.00;101165.31;5115065;28;20539;-46
2023/09/13 02:07:35;;;;;;;31.63;21.75;;;;;;;16.26;100.00;100968.13;5092697;28;20035;-48
2023/09/13 02:10:00;;;;;;;35.22;21.38;;;;;;;17.32;100.00;101175.88;5094905;28;20102;-52
2023/09/13 02:12:25;;;;;;;38.50;21.80;;;;;;;17.25;100.00;101174.47;5094898;28;20066;-48
2023/09/13 02:14:51;;;;;;;34.50;21.90;;;;;;;17.19;100.00;101173.97;5094770;28;20032;-48
2023/09/13 02:17:16;;;;;;;33.42;21.25;;;;;;;17.10;100.00;101174.47;5094731;28;20490;-48
2023/09/13 02:19:42;;;;;;;36.40;21.92;;;;;;;17.12;100.00;101180.56;5094886;28;20036;-45
2023/09/13 02:22:07;;;;;;;31.90;20.92;;;;;;;17.07;100.00;101171.97;5097984;28;20035;-50
2023/09/13 02:24:33;;;;;;;32.60;21.35;;;;;;;16.94;100.00;101171.75;5113613;28;20039;-46
2023/09/13 02:26:59;;;;;;;34.58;21.77;;;;;;;17.15;100.00;101188.38;5113534;28;20110;-48
2023/09/13 02:29:24;;;;;;;34.38;22.60;;;;;;;16.94;100.00;101137.19;5114653;28;20027;-48
2023/09/13 02:31:49;;;;;;;41.67;22.70;;;;;;;17.15;100.00;101175.06;5096509;28;20188;-48
2023/09/13 02:34:15;;;;;;;39.55;21.88;;;;;;;17.01;100.00;101145.72;5114742;28;20091;-47
2023/09/13 02:36:40;;;;;;;34.20;22.15;;;;;;;17.31;100.00;101197.22;5114965;28;20035;-47
2023/09/13 02:39:09;;;;;;;38.85;22.92;;;;;;;17.03;100.00;101118.09;5114807;27;20042;-47
2023/09/13 02:41:34;;;;;;;41.97;22.70;;;;;;;16.97;100.00;101102.47;5112759;28;20092;-49
2023/09/13 02:44:00;;;;;;;44.15;24.35;;;;;;;17.58;100.00;101184.25;5114596;28;20039;-50
2023/09/13 02:46:25;;;;;;;45.35;25.23;;;;;;;17.61;100.00;101190.25;5114638;28;20042;-47
2023/09/13 02:48:50;;;;;;;39.30;23.98;;;;;;;17.69;100.00;101192.47;5114809;28;20471;-50
2023/09/13 02:51:15;;;;;;;42.85;27.67;;;;;;;17.69;100.00;101195.13;5114508;28;20054;-52
2023/09/13 02:53:41;;;;;;;43.55;27.60;;;;;;;17.29;100.00;101133.47;5114658;28;20039;-46
2023/09/13 02:56:07;;;;;;;46.97;29.83;;;;;;;17.56;100.00;101194.13;5112537;28;20123;-46
2023/09/13 02:58:32;;;;;;;52.55;31.38;;;;;;;17.44;100.00;101167.22;5113129;28;20051;-53
2023/09/13 03:00:58;;;;;;;50.28;31.38;;;;;;;17.48;100.00;101175.03;5114074;28;20475;-51
2023/09/13 03:03:24;;;;;;;55.67;32.13;;;;;;;17.44;100.00;101177.84;5112877;28;20042;-46
2023/09/13 03:05:49;;;;;;;50.60;31.75;;;;;;;17.16;100.00;101121.78;5112756;28;20545;-49
2023/09/13 03:08:14;;;;;;;50.05;32.33;;;;;;;17.48;100.00;101167.03;5114288;28;20048;-47
2023/09/13 03:10:40;;;;;;;53.63;31.42;;;;;;;17.56;100.00;101181.69;5114096;28;20115;-49
2023/09/13 03:13:05;;;;;;;53.75;31.45;;;;;;;17.17;100.00;101128.81;5112955;28;20042;-50
2023/09/13 03:15:34;;;;;;;54.03;32.20;;;;;;;17.41;100.00;101182.50;5113772;28;20135;-48
2023/09/13 03:18:00;;;;;;;49.50;31.48;;;;;;;17.40;100.00;101189.59;5114115;28;20044;-49
2023/09/13 03:20:26;;;;;;;62.70;35.97;;;;;;;17.44;100.00;101184.97;5114073;28;20118;-51
2023/09/13 03:22:51;;;;;;;67.88;36.63;;;;;;;17.44;100.00;101180.53;5113823;28;20493;-46
2023/09/13 03:25:16;;;;;;;54.97;34.05;;;;;;;17.13;100.00;101145.03;5113824;28;20122;-46
2023/09/13 03:27:41;;;;;;;60.35;35.63;;;;;;;17.04;100.00;101135.75;5113192;28;20126;-45
2023/09/13 03:30:07;;;;;;;66.20;37.13;;;;;;;17.33;100.00;101206.00;5113880;28;20042;-47
2023/09/13 03:32:32;;;;;;;64.13;36.08;;;;;;;17.25;100.00;101184.28;5113935;28;20115;-48
2023/09/13 03:34:58;;;;;;;65.85;36.15;;;;;;;16.93;100.00;101138.13;5113810;28;20039;-48
2023/09/13 03:37:23;;;;;;;67.75;40.05;;;;;;;17.26;100.00;101193.97;5113626;28;20080;-52
2023/09/13 03:39:48;;;;;;;81.72;42.67;;;;;;;17.41;100.00;101204.63;5113581;28;20036;-46
2023/09/13 03:42:14;;;;;;;71.70;41.03;;;;;;;17.49;100.00;101206.88;5113214;28;20059;-51
2023/09/13 03:44:39;;;;;;;69.63;42.85;;;;;;;17.41;100.00;101175.38;5112006;28;20122;-46
2023/09/13 03:47:04;;;;;;;76.38;43.28;;;;;;;17.59;100.00;101189.50;5113450;28;20122;-45
2023/09/13 03:49:30;;;;;;;76.28;42.72;;;;;;;17.65;100.00;101197.13;5113561;28;20036;-48
2023/09/13 03:51:55;;;;;;;82.13;45.72;;;;;;;17.65;100.00;101212.25;5113463;28;20371;-48
2023/09/13 03:54:21;;;;;;;74.18;42.80;;;;;;;17.55;100.00;101200.38;5113109;28;20603;-51
2023/09/13 03:56:47;;;;;;;80.95;46.38;;;;;;;17.36;100.00;101184.56;5113295;28;20023;-49
2023/09/13 03:59:12;;;;;;;76.65;45.65;;;;;;;17.40;100.00;101196.72;5113017;28;20058;-49
2023/09/13 04:01:37;;;;;;;88.78;48.42;;;;;;;17.35;100.00;101197.00;5100789;28;20478;-47
2023/09/13 04:04:03;;;;;;;78.60;46.42;;;;;;;17.07;100.00;101161.34;5092775;28;20487;-48
2023/09/13 04:06:28;;;;;;;78.57;46.38;;;;;;;17.30;100.00;101201.72;5092948;28;20479;-52
2023/09/13 04:08:54;;;;;;;74.80;44.72;;;;;;;17.17;100.00;101182.03;5092905;28;20180;-51
2023/09/13 04:11:19;;;;;;;71.32;43.17;;;;;;;17.25;100.00;101186.94;5092783;28;20039;-48
2023/09/13 04:13:44;;;;;;;75.32;43.20;;;;;;;17.08;100.00;101163.91;5092307;28;20032;-50
2023/09/13 04:16:15;;;;;;;84.88;45.08;;;;;;;17.11;100.00;101179.69;5092442;28;20033;-48
2023/09/13 04:18:40;;;;;;;81.57;43.63;;;;;;;17.30;100.00;101201.72;5091082;28;20028;-49
2023/09/13 04:21:06;;;;;;;80.80;45.13;;;;;;;16.95;100.00;101135.41;5091425;28;20490;-49
2023/09/13 04:23:31;;;;;;;77.57;43.67;;;;;;;17.32;100.00;101191.84;5092210;28;20065;-47
2023/09/13 04:25:56;;;;;;;70.38;41.25;;;;;;;17.00;100.00;101136.88;5092142;28;20050;-51
2023/09/13 04:28:22;;;;;;;64.63;38.58;;;;;;;17.34;100.00;101205.91;5092056;28;20035;-45
2023/09/13 04:30:47;;;;;;;60.63;37.85;;;;;;;17.16;100.00;101169.66;5092355;28;20031;-47
2023/09/13 04:33:13;;;;;;;67.05;39.13;;;;;;;17.39;100.00;101206.53;5098485;28;20118;-50
2023/09/13 04:35:38;;;;;;;55.85;37.08;;;;;;;17.50;100.00;101199.75;5111357;28;20028;-47
2023/09/13 04:38:03;;;;;;;58.53;38.08;;;;;;;17.53;100.00;101208.44;5112413;28;20151;-46
2023/09/13 04:40:29;;;;;;;50.55;32.60;;;;;;;17.22;100.00;101160.50;5112428;28;20111;-48
2023/09/13 04:43:15;;;;;;;20.25;10.43;;;;;;;17.11;100.00;101179.69;5112457;28;20538;-55
2023/09/13 04:45:41;;;;;;;16.45;6.00;;;;;;;17.05;100.00;101203.09;5112045;28;20031;-52
2023/09/13 04:48:06;;;;;;;18.35;4.85;;;;;;;17.12;100.00;101255.03;5111151;28;20034;-53
2023/09/13 04:50:31;;;;;;;19.48;4.43;;;;;;;16.85;100.00;101236.06;5110973;28;20051;-48
2023/09/13 04:52:57;;;;;;;16.58;3.88;;;;;;;16.81;100.00;101248.63;5111156;28;20342;-51
2023/09/13 04:55:23;;;;;;;18.70;3.75;;;;;;;16.31;100.00;101198.03;5112369;28;20065;-53
2023/09/13 04:57:49;;;;;;;16.35;4.22;;;;;;;16.56;100.00;101265.94;5112327;28;20073;-48
2023/09/13 05:00:16;;;;;;;20.95;3.88;;;;;;;16.40;100.00;101260.50;5109317;28;20051;-53
2023/09/13 05:02:41;;;;;;;19.65;4.15;;;;;;;16.25;100.00;101250.63;5108423;28;20475;-49
2023/09/13 05:05:07;;;;;;;22.35;5.63;;;;;;;16.25;100.00;101261.25;5103721;28;20052;-47
2023/09/13 05:07:32;;;;;;;18.42;3.53;;;;;;;16.17;100.00;101266.91;5102638;28;20312;-46
2023/09/13 05:09:58;;;;;;;15.93;3.63;;;;;;;16.14;100.00;101277.69;5111545;28;20024;-53
2023/09/13 05:12:23;;;;;;;16.70;3.05;;;;;;;15.79;100.00;101209.50;5112108;28;20163;-49
2023/09/13 05:14:48;;;;;;;11.30;2.80;;;;;;;16.10;100.00;101299.16;5112277;28;20038;-47
2023/09/13 05:17:14;;;;;;;7.50;2.03;;;;;;;16.05;100.00;101312.66;5110746;28;20118;-48
2023/09/13 05:19:39;;;;;;;4.78;1.40;;;;;;;15.52;100.00;101246.19;5111562;28;20024;-51
2023/09/13 05:22:04;;;;;;;4.28;1.23;;;;;;;15.85;100.00;101303.94;5121412;28;20047;-49
2023/09/13 05:24:30;;;;;;;3.30;1.10;;;;;;;15.76;100.00;101321.16;5111499;27;20040;-49
2023/09/13 05:26:55;;;;;;;4.70;1.10;;;;;;;15.30;100.00;101257.78;5105142;28;20031;-50
2023/09/13 05:29:21;;;;;;;3.05;0.93;;;;;;;15.58;100.00;101324.63;5099494;28;20055;-50
2023/09/13 05:31:46;;;;;;;3.67;0.90;;;;;;;15.44;100.00;101313.75;5118636;27;20047;-48
2023/09/13 05:34:12;;;;;;;7.20;1.55;;;;;;;15.14;100.00;101281.50;5101324;28;20036;-48
2023/09/13 05:36:37;;;;;;;1.60;0.73;;;;;;;15.28;100.00;101333.91;5101820;28;20126;-46
2023/09/13 05:39:03;;;;;;;6.13;1.95;;;;;;;15.20;100.00;101324.53;5098520;28;20509;-49
2023/09/13 05:41:28;;;;;;;4.32;1.40;;;;;;;14.91;100.00;101287.81;5134272;27;20036;-49
2023/09/13 05:43:54;;;;;;;4.43;1.48;;;;;;;14.89;100.00;101300.25;5094792;28;20403;-48
2023/09/13 05:46:19;;;;;;;5.22;1.35;;;;;;;15.00;100.00;101329.78;5095033;28;20028;-48
2023/09/13 05:48:44;;;;;;;6.65;1.92;;;;;;;15.11;100.00;101350.56;5097870;28;20395;-45
2023/09/13 05:51:10;;;;;;;5.25;1.92;;;;;;;15.12;100.00;101371.69;5117977;27;20047;-44
2023/09/13 05:53:35;;;;;;;5.40;1.65;;;;;;;14.81;100.00;101302.38;5124460;27;20040;-45
2023/09/13 05:56:03;;;;;;;4.65;1.42;;;;;;;15.14;100.00;101379.59;5113926;27;20040;-46
2023/09/13 05:58:28;;;;;;;4.28;1.10;;;;;;;15.12;100.00;101392.03;5112201;27;20031;-47
2023/09/13 06:00:55;;;;;;;2.35;1.27;;;;;;;15.13;100.00;101393.78;5115463;28;20032;-46
2023/09/13 06:03:21;;;;;;;4.63;1.40;;;;;;;14.68;100.00;101338.25;5114014;28;20100;-52
2023/09/13 06:05:51;;;;;;;5.90;1.67;;;;;;;14.66;100.00;101358.63;5115046;28;20075;-54
2023/09/13 06:08:19;;;;;;;4.13;1.80;;;;;;;14.57;100.00;101348.41;5097552;28;20502;-50
2023/09/13 06:10:45;;;;;;;6.75;1.33;;;;;;;14.96;100.00;101423.66;5108410;28;20108;-51
2023/09/13 06:13:11;;;;;;;4.97;2.00;;;;;;;14.62;100.00;101380.91;5095591;28;20449;-47
2023/09/13 06:15:36;;;;;;;5.85;1.52;;;;;;;14.91;100.00;101430.94;5107573;27;20043;-49
2023/09/13 06:18:02;;;;;;;3.67;1.42;;;;;;;14.91;100.00;101454.81;5114977;28;20055;-48
2023/09/13 06:20:27;;;;;;;5.47;1.67;;;;;;;14.50;100.00;101387.56;5113644;28;20462;-48
2023/09/13 06:22:54;;;;;;;3.08;1.40;;;;;;;14.87;100.00;101453.19;5114743;28;20085;-50
2023/09/13 06:25:19;;;;;;;4.85;1.55;;;;;;;14.85;100.00;101462.13;5113646;28;20115;-48
2023/09/13 06:27:44;;;;;;;6.25;1.75;;;;;;;14.64;100.00;101440.84;5115142;28;20538;-51
2023/09/13 06:30:10;;;;;;;2.55;1.45;;;;;;;14.44;100.00;101398.41;5117699;27;20077;-47
2023/09/13 06:32:36;;;;;;;2.63;1.60;;;;;;;14.50;100.00;101403.47;5113953;27;20043;-50
2023/09/13 06:35:01;;;;;;;2.83;1.67;;;;;;;14.98;100.00;101485.41;5115901;27;20031;-51
2023/09/13 06:37:26;;;;;;;4.78;1.67;;;;;;;14.70;100.00;101420.34;5121781;27;20466;-48
2023/09/13 06:39:53;;;;;;;5.22;1.63;;;;;;;15.02;100.00;101470.25;5114786;28;20035;-46
2023/09/13 06:42:18;;;;;;;2.58;1.50;;;;;;;15.05;100.00;101478.09;5105094;27;20041;-48
2023/09/13 06:44:44;;;;;;;2.95;1.77;;;;;;;15.10;100.00;101492.88;5102171;28;20038;-47
2023/09/13 06:47:09;;;;;;;2.88;1.20;;;;;;;15.21;100.00;101492.44;5114726;28;20367;-52
2023/09/13 06:49:35;;;;;;;2.95;1.40;;;;;;;15.28;100.00;101485.09;5114713;28;20126;-46
2023/09/13 06:52:01;;;;;;;3.85;1.45;;;;;;;15.36;100.00;101493.59;5112734;27;20036;-49
2023/09/13 06:54:26;;;;;;;6.30;1.42;;;;;;;15.44;100.00;101502.13;5109075;27;20099;-45
2023/09/13 06:56:52;;;;;;;6.47;1.55;;;;;;;15.54;100.00;101507.00;5134699;27;20111;-50
2023/09/13 06:59:19;;;;;;;5.00;1.27;;;;;;;15.22;100.00;101435.81;5114201;27;20050;-46
2023/09/13 07:01:45;;;;;;;7.95;1.70;;;;;;;15.69;100.00;101516.09;5107512;28;20042;-50
2023/09/13 07:04:10;;;;;;;5.18;1.92;;;;;;;15.55;100.00;101460.97;5111264;28;20052;-48
2023/09/13 07:06:35;;;;;;;5.72;1.60;;;;;;;15.84;100.00;101482.72;5114288;28;20043;-47
2023/09/13 07:09:00;;;;;;;5.72;1.83;;;;;;;16.25;100.00;101525.09;5113949;28;20532;-47
2023/09/13 07:11:26;;;;;;;4.90;1.67;;;;;;;16.47;100.00;101527.63;5114310;28;20043;-46
2023/09/13 07:13:51;;;;;;;3.13;1.20;;;;;;;16.55;100.00;101514.88;5114376;28;20053;-46
2023/09/13 07:16:17;;;;;;;5.93;1.75;;;;;;;16.56;100.00;101518.41;5111648;28;20032;-45
2023/09/13 07:18:42;;;;;;;2.47;1.27;;;;;;;16.25;100.00;101479.06;5113643;28;20628;-52
2023/09/13 07:21:07;;;;;;;5.43;1.48;;;;;;;16.33;100.00;101477.78;5114422;28;20027;-49
2023/09/13 07:23:33;;;;;;;2.50;1.40;;;;;;;16.36;100.00;101475.91;5113586;28;20104;-48
2023/09/13 07:25:59;;;;;;;3.38;0.93;;;;;;;16.34;100.00;101486.63;5109683;28;20040;-46
2023/09/13 07:28:25;;;;;;;4.40;1.30;;;;;;;16.80;100.00;101542.06;5108768;27;20114;-46
2023/09/13 07:30:50;;;;;;;2.60;1.00;;;;;;;16.63;100.00;101502.13;5134257;27;20114;-48
2023/09/13 07:33:15;;;;;;;1.92;0.85;;;;;;;17.07;100.00;101566.50;5114574;27;20058;-49
2023/09/13 07:35:41;;;;;;;3.60;1.45;;;;;;;17.21;100.00;101561.38;5111289;28;20039;-47
2023/09/13 07:38:06;;;;;;;1.50;0.98;;;;;;;17.27;100.00;101584.16;5111036;28;20371;-46
2023/09/13 07:40:31;;;;;;;4.70;0.93;;;;;;;17.32;100.00;101590.97;5108376;28;20348;-47
2023/09/13 07:42:58;;;;;;;2.08;1.10;;;;;;;17.42;100.00;101594.88;5110991;28;20031;-46
2023/09/13 07:45:24;;;;;;;3.47;1.27;;;;;;;17.10;100.00;101533.56;5099836;28;20035;-48
2023/09/13 07:47:50;;;;;;;2.92;0.88;;;;;;;17.62;100.00;101607.28;5087437;28;20028;-45
2023/09/13 07:50:37;;;;;;;2.05;1.20;;;;;;;17.78;100.00;101626.00;5092331;28;20039;-47
2023/09/13 07:53:03;;;;;;;0.80;0.80;;;;;;;17.80;100.00;101624.16;5088347;28;20040;-45
2023/09/13 07:55:29;;;;;;;2.08;1.20;;;;;;;17.92;100.00;101637.69;5088799;28;20035;-46
2023/09/13 07:57:54;;;;;;;3.95;1.00;;;;;;;18.05;100.00;101637.94;5089630;28;20028;-49
2023/09/13 08:00:19;;;;;;;3.13;1.13;;;;;;;18.11;100.00;101647.44;5089415;28;20090;-53
2023/09/13 08:02:46;;;;;;;2.17;0.73;;;;;;;17.81;100.00;101589.44;5085182;28;20051;-48
2023/09/13 08:05:11;;;;;;;1.73;1.00;;;;;;;17.98;100.00;101599.22;5088724;28;20048;-46
2023/09/13 08:07:37;;;;;;;3.13;0.80;;;;;;;18.02;100.00;101600.81;5090086;28;20116;-44
2023/09/13 08:10:03;;;;;;;3.65;1.30;;;;;;;17.97;100.00;101595.72;5089361;28;20098;-46
2023/09/13 08:12:30;;;;;;;5.72;1.10;;;;;;;18.04;100.00;101603.41;5089697;28;20032;-46
2023/09/13 08:14:55;;;;;;;4.53;1.00;;;;;;;18.32;100.00;101651.66;5090285;28;20097;-47
2023/09/13 08:17:21;;;;;;;4.38;1.10;;;;;;;18.40;100.00;101665.47;5088276;28;20150;-48
2023/09/13 08:19:49;;;;;;;1.65;0.90;;;;;;;18.24;100.00;101620.06;5089683;28;20127;-45
2023/09/13 08:22:14;;;;;;;4.13;1.23;;;;;;;18.31;100.00;101617.94;5089554;28;20041;-50
2023/09/13 08:24:40;;;;;;;3.20;0.98;;;;;;;18.45;100.00;101656.28;5089579;28;20491;-47
2023/09/13 08:27:05;;;;;;;4.53;1.10;;;;;;;18.82;100.00;101692.59;5090072;28;20068;-47
2023/09/13 08:29:31;;;;;;;5.38;1.30;;;;;;;18.87;100.00;101697.66;5089523;28;20040;-48
2023/09/13 08:31:56;;;;;;;1.25;0.93;;;;;;;18.60;100.00;101643.97;5089414;28;20047;-47
2023/09/13 08:34:23;;;;;;;1.52;1.10;;;;;;;18.70;100.00;101649.69;5089688;28;20059;-45
2023/09/13 08:36:49;;;;;;;2.25;1.17;;;;;;;19.09;100.00;101712.44;5090365;28;20046;-49
2023/09/13 08:39:15;;;;;;;2.15;0.98;;;;;;;19.20;100.00;101725.22;5089387;28;20040;-50
2023/09/13 08:41:43;;;;;;;3.00;0.90;;;;;;;18.94;100.00;101683.91;5089382;28;20037;-48
2023/09/13 08:44:08;;;;;;;2.45;1.13;;;;;;;19.30;100.00;101715.75;5088074;28;20471;-49
2023/09/13 08:46:34;;;;;;;1.88;1.00;;;;;;;19.65;100.00;101746.75;5089229;28;20030;-47
2023/09/13 08:49:00;;;;;;;2.05;1.33;;;;;;;19.41;100.00;101669.81;5089130;28;20035;-45
2023/09/13 08:51:27;;;;;;;1.40;1.00;;;;;;;19.85;100.00;101705.53;5088286;28;20039;-45
2023/09/13 08:53:52;;;;;;;3.13;1.30;;;;;;;20.17;100.00;101751.78;5087545;28;20040;-48
2023/09/13 08:56:20;;;;;;;2.17;1.25;;;;;;;20.03;100.00;101765.09;5089112;28;20036;-45
2023/09/13 08:58:45;;;;;;;3.20;1.30;;;;;;;19.58;100.00;101768.56;5088833;28;20036;-47
2023/09/13 09:01:12;;;;;;;4.55;1.30;;;;;;;19.07;100.00;101710.81;5088762;28;20036;-46
2023/09/13 09:03:38;;;;;;;2.80;1.13;;;;;;;19.61;100.00;101787.91;5088679;28;20040;-45
2023/09/13 09:06:05;;;;;;;1.10;0.93;;;;;;;19.35;100.00;101726.19;5087841;28;20035;-48
2023/09/13 09:08:32;;;;;;;2.25;1.10;;;;;;;19.94;100.00;101789.66;5088001;28;20093;-46
2023/09/13 09:10:59;;;;;;;2.40;1.05;;;;;;;19.40;100.00;101727.69;5087571;28;20153;-47
2023/09/13 09:13:25;;;;;;;2.30;1.02;;;;;;;19.37;100.00;101729.63;5087987;28;20043;-46
2023/09/13 09:15:58;;;;;;;5.30;1.35;;;;;;;19.75;100.00;101787.19;5090105;28;20024;-44
2023/09/13 09:18:26;;;;;;;7.07;1.52;;;;;;;20.42;100.00;101778.00;5087826;28;20106;-45
2023/09/13 09:20:51;;;;;;;2.45;0.82;;;;;;;20.79;100.00;101758.81;5087704;28;20151;-47
2023/09/13 09:23:17;;;;;;;2.45;1.17;;;;;;;20.99;100.00;101771.84;5087761;28;20546;-48
2023/09/13 09:25:44;;;;;;;3.03;1.30;;;;;;;20.56;100.00;101748.63;5087743;28;20517;-46
2023/09/13 09:28:09;;;;;;;1.80;0.70;;;;;;;20.09;100.00;101741.56;5088683;28;20032;-45
2023/09/13 09:30:36;;;;;;;2.72;1.13;;;;;;;20.23;100.00;101744.28;5088570;28;20134;-45
2023/09/13 09:33:05;;;;;;;3.45;0.95;;;;;;;20.50;100.00;101754.34;5070147;28;20439;-47
2023/09/13 09:35:32;;;;;;;2.95;0.88;;;;;;;20.68;100.00;101818.34;5087377;28;20051;-48
2023/09/13 09:37:57;;;;;;;3.28;1.20;;;;;;;20.31;100.00;101773.31;5087594;28;20043;-47
2023/09/13 09:40:23;;;;;;;2.38;1.15;;;;;;;20.65;100.00;101828.34;5104132;28;20033;-50
2023/09/13 09:42:57;;;;;;;1.38;0.80;;;;;;;21.29;100.00;101820.03;5088816;28;20036;-49
2023/09/13 09:45:23;;;;;;;1.67;0.73;;;;;;;22.62;100.00;101821.25;5087379;28;20142;-46
2023/09/13 09:47:50;;;;;;;1.42;0.85;;;;;;;23.78;100.00;101844.50;5088903;28;20085;-48
2023/09/13 09:50:16;;;;;;;2.08;0.70;;;;;;;24.44;100.00;101796.53;5088625;28;20035;-50
2023/09/13 09:52:42;;;;;;;1.30;0.60;;;;;;;24.66;100.00;101808.38;5087399;28;20032;-50
2023/09/13 09:55:15;;;;;;;1.13;0.70;;;;;;;24.59;100.00;101849.22;5088576;28;20645;-49
2023/09/13 09:57:48;;;;;;;1.08;0.65;;;;;;;24.86;100.00;101870.53;5088102;28;20036;-51
2023/09/13 10:00:14;;;;;;;1.33;0.60;;;;;;;23.45;100.00;101853.13;5088573;28;20035;-46
2023/09/13 10:02:39;;;;;;;1.25;0.90;;;;;;;22.79;100.00;101812.97;5088452;28;20032;-47
2023/09/13 10:05:05;;;;;;;2.42;0.77;;;;;;;21.94;100.00;101785.56;5088406;28;20139;-45
2023/09/13 10:07:30;;;;;;;0.68;0.63;;;;;;;20.99;100.00;101795.06;5088498;28;20111;-46
2023/09/13 10:09:56;;;;;;;1.02;0.70;;;;;;;20.66;100.00;101854.16;5086850;28;20035;-45
2023/09/13 10:12:21;;;;;;;1.90;0.93;;;;;;;20.33;100.00;101776.75;5091331;28;20039;-46
2023/09/13 10:14:46;;;;;;;1.95;0.73;;;;;;;20.81;100.00;101857.75;5108024;28;20077;-49
2023/09/13 10:17:12;;;;;;;2.65;0.75;;;;;;;20.54;100.00;101796.03;5091871;28;20488;-46
2023/09/13 10:19:38;;;;;;;3.45;1.15;;;;;;;20.11;100.00;101808.31;5092138;28;20024;-45
2023/09/13 10:22:04;;;;;;;3.45;0.98;;;;;;;20.00;100.00;101848.97;5091993;28;20110;-47
2023/09/13 10:24:42;;;;;;;4.65;0.70;;;;;;;19.60;100.00;101799.56;5090448;28;20257;-45
2023/09/13 10:27:08;;;;;;;2.28;0.80;;;;;;;19.14;100.00;101744.22;5090449;28;20476;-47
2023/09/13 10:29:43;;;;;;;0.50;0.50;;;;;;;19.64;100.00;101859.88;5090507;28;20036;-48
2023/09/13 10:32:11;;;;;;;4.80;1.02;;;;;;;19.61;100.00;101838.66;5091666;28;20036;-49
2023/09/13 10:34:45;;;;;;;2.65;0.73;;;;;;;19.67;100.00;101858.88;5092274;28;20119;-46
2023/09/13 10:37:46;;;;;;;1.30;0.57;;;;;;;19.45;100.00;101864.47;5090248;28;20036;-50
2023/09/13 10:40:27;;;;;;;1.42;0.70;;;;;;;19.46;100.00;101868.88;5028783;28;20041;-47
2023/09/13 10:42:52;;;;;;;1.65;0.98;;;;;;;19.06;100.00;101871.84;5084994;28;20035;-47
2023/09/13 10:45:18;;;;;;;2.75;0.90;;;;;;;19.12;100.00;101873.38;5106886;28;20463;-46
2023/09/13 10:47:49;;;;;;;2.50;1.17;;;;;;;18.37;100.00;101806.88;5089736;28;20028;-46
2023/09/13 10:50:15;;;;;;;;;;;;;;;18.63;100.00;101901.63;5091781;28;20101;-44
2023/09/13 10:52:42;;;;;;;4.30;1.95;;;;;;;17.99;100.00;101883.34;5089919;28;20367;-47
2023/09/13 10:55:08;;;;;;;2.58;1.40;;;;;;;17.58;100.00;101845.28;5091415;28;20032;-45
2023/09/13 10:57:34;;;;;;;4.28;1.70;;;;;;;17.91;100.00;101907.69;5072894;28;20169;-47
2023/09/13 10:59:59;;;;;;;2.28;1.48;;;;;;;17.98;100.00;101911.78;5089809;28;20147;-46
2023/09/13 11:02:28;;;;;;;6.22;1.88;;;;;;;17.40;100.00;101806.16;5091374;28;20036;-44
2023/09/13 11:04:53;;;;;;;3.05;1.55;;;;;;;17.57;100.00;101827.59;5090968;28;20051;-46
2023/09/13 11:07:18;;;;;;;4.13;1.90;;;;;;;17.83;100.00;101851.22;5091511;28;20455;-45